Terminal Aerodrome Forecast
Issued by NWS

Home | Current Version | Previous Version | Text Only | Print | Product List | Glossary Off
Versions: 1 2 3 4 5 6 7 8 9 10 11 12 13 14 15 16

000
FTUS43 KDVN 031731
TAFBRL
TAF
KBRL 031731Z 0318/0418 21015G23KT P6SM SCT120
     FM040000 19010KT P6SM BKN150
     FM040800 22008KT P6SM VCTS SCT060CB OVC150=

USA.gov is the U.S. government's official web portal to all federal, state and local government web resources and services.